Terminal Aerodrome Forecast
Issued by NWS

Home | Current Version | Previous Version | Text Only | Print | Product List | Glossary On
Versions: 1 2 3 4 5 6 7 8 9 10 11 12 13 14 15 16 17 18
802
FTUS43 KIND 281721
TAFLAF
TAF
KLAF 281721Z 2818/2918 25005KT P6SM SCT020 BKN080
     FM282000 25005KT P6SM VCTS SCT020CB BKN080
     FM290300 00000KT P6SM SCT080 SCT250
      TEMPO 2904/2908 4SM BR
     FM290800 00000KT 4SM BR BKN004
     FM291500 25005KT P6SM BKN015 BKN250=

USA.gov is the U.S. government's official web portal to all federal, state and local government web resources and services.